• Join FlightAware (Why Join?)
  • Login
  • US Flag 
09:53PM EDT


 

Airport Tracker/Info


-or-


 

Live Flight TrackerFlight Track Log ✈ UAL4695 ✈ 26-Apr-2013 ✈ KRIC - KEWR

Flight Track Log - Related Links

Times and Time Zones

All times are in EDT time to prevent confusion due to time zone crossing. See the UAL4695 flight status page for this flight to view local times or setup timezone preferences in your user account.

Time Position Orientation Groundspeed Altitude Reporting Facility
EDT Latitude Longitude Course Direction KTS MPH feet Rate Location/Type
07:21PM 37.5333 -77.3167 38° Northeast 191 220 1,200  Level Potomac TRACON
07:22PM 37.5833 -77.2833 28° Northeast 246 283 3,700 2,700 Climbing Potomac TRACON
07:23PM 37.6500 -77.2333 31° Northeast 273 314 6,700 3,000 Climbing Potomac TRACON
07:24PM 37.6683 -77.1947 59° Northeast 275 316 8,500 1,440 Climbing Washington Center
07:25PM 37.7791 -77.0209 38° Northeast  Level FlightAware Approximate
07:25PM 37.7297 -77.1253 42° Northeast 280 322 9,100  Level Washington Center
07:26PM 37.8364 -76.9636 38° Northeast  Level FlightAware Approximate
07:26PM 37.7867 -77.0581 43° Northeast 295 339 11,000  Level Washington Center
07:27PM 37.8586 -76.9725 43° Northeast 324 373 12,500 1,680 Climbing Washington Center
07:28PM 37.9369 -76.8819 42° Northeast 353 406 14,500 1,500 Climbing Washington Center
07:29PM 38.0150 -76.7778 46° Northeast 379 436 15,600 1,920 Climbing Washington Center
07:30PM 38.0911 -76.6733 47° Northeast 399 459 18,300 2,520 Climbing Washington Center
07:31PM 38.1631 -76.5742 47° Northeast 394 453 20,600 1,980 Climbing Washington Center
07:32PM 38.2367 -76.4694 48° Northeast 389 448 22,400 1,860 Climbing Washington Center
07:33PM 38.3353 -76.3911 32° Northeast 361 415 24,300 1,260 Climbing Washington Center
07:34PM 38.4397 -76.3764 North 361 415 25,000 300 Climbing Washington Center
07:35PM 38.5397 -76.3828 357° North 353 406 25,000  Level Washington Center
07:36PM 38.6292 -76.4128 345° North 341 392 25,000  Level Washington Center
07:37PM 38.7228 -76.4431 346° North 341 392 25,000  Level Washington Center
07:38PM 38.8142 -76.4761 344° North 335 386 25,000  Level Washington Center
07:39PM 38.9078 -76.5067 346° North 341 392 25,000  Level Washington Center
07:40PM 38.9997 -76.4597 22° Northeast 330 380 25,000  Level Washington Center
07:41PM 39.0756 -76.3564 47° Northeast 358 412 25,000 -360 Level Washington Center
07:42PM 39.1511 -76.2500 47° Northeast 369 425 24,300 -540 Descending Washington Center
07:43PM 39.2350 -76.1436 44° Northeast 392 451 24,000 -180 Descending Washington Center
07:44PM 39.3189 -76.0394 44° Northeast 407 468 24,000  Level Washington Center
07:45PM 39.4111 -75.9272 43° Northeast 426 490 24,000  Level Washington Center
07:46PM 39.4925 -75.8283 43° Northeast 431 496 24,000  Level Washington Center
07:47PM 39.5844 -75.7208 42° Northeast 444 511 24,000  Level Washington Center
07:48PM 39.6697 -75.6186 43° Northeast 434 499 24,000 -1,020 Level Washington Center
07:49PM 39.7553 -75.5186 42° Northeast 423 487 22,100 -2,280 Descending Washington Center
07:50PM 39.8364 -75.4211 43° Northeast 408 470 19,500 -2,460 Descending Washington Center
07:51PM 39.9133 -75.3264 43° Northeast 393 452 17,200 -2,460 Descending Washington Center
07:52PM 39.9858 -75.2367 43° Northeast 372 428 14,700 -2,580 Descending Washington Center
07:53PM 40.0586 -75.1497 42° Northeast 359 413 12,200 -1,920 Descending Washington Center
07:54PM 40.1333 -75.0667 40° Northeast 334 384 11,000 -1,320 Descending New York TRACON
07:55PM 40.2000 -74.9833 44° Northeast 300 345 9,700 -1,440 Descending New York TRACON
07:56PM 40.2500 -74.9167 45° Northeast 277 319 8,200 -900 Descending New York TRACON
07:57PM 40.3000 -74.8500 45° Northeast 267 307 8,000 -660 Descending New York TRACON
07:58PM 40.3500 -74.7667 52° Northeast 260 299 6,900 -1,020 Descending New York TRACON
07:59PM 40.4000 -74.7000 45° Northeast 259 298 6,000 -480 Descending New York TRACON
08:00PM 40.4667 -74.6667 21° North 262 302 6,000  Level New York TRACON
08:01PM 40.5333 -74.6333 21° North 249 287 6,000  Level New York TRACON
08:02PM 40.6000 -74.6167 11° North 262 302 6,000  Level New York TRACON
08:03PM 40.6833 -74.6000 North 267 307 6,000 -180 Level New York TRACON
08:04PM 40.7333 -74.5500 37° Northeast 259 298 5,700 -540 Descending New York TRACON
08:05PM 40.8000 -74.5167 21° North 252 290 5,000 -360 Descending New York TRACON
08:06PM 40.8667 -74.4667 30° Northeast 259 298 5,000  Level New York TRACON
08:07PM 40.9000 -74.4000 57° Northeast 252 290 5,000 -300 Level New York TRACON
08:08PM 40.9167 -74.3000 78° East 245 282 4,500 -540 Descending New York TRACON
08:09PM 40.9167 -74.2333 90° East 216 249 4,000 -240 Descending New York TRACON
08:10PM 40.9167 -74.1500 90° East 215 247 4,000 -480 Level New York TRACON
08:11PM 40.8667 -74.1000 143° Southeast 216 249 3,100 -660 Descending New York TRACON
08:12PM 40.8167 -74.0833 166° South 206 237 2,700 -780 Descending New York TRACON
08:13PM 40.7667 -74.1167 207° Southwest 200 230 1,600 -1,140 Descending New York TRACON